sensor_id;sensor_type;location;lat;lon;timestamp;pressure;altitude;pressure_sealevel;temperature;humidity
16461;BME280;8341;42.048;24.650;2023-01-20T00:01:09;95981.38;;;14.82;49.90
16461;BME280;8341;42.048;24.650;2023-01-20T00:03:37;96007.97;;;14.87;49.04
16461;BME280;8341;42.048;24.650;2023-01-20T00:06:03;96031.50;;;14.96;49.13
16461;BME280;8341;42.048;24.650;2023-01-20T00:08:32;96008.50;;;14.99;48.20
16461;BME280;8341;42.048;24.650;2023-01-20T00:11:03;95995.28;;;14.97;48.81
16461;BME280;8341;42.048;24.650;2023-01-20T00:13:29;96029.63;;;14.91;49.80
16461;BME280;8341;42.048;24.650;2023-01-20T00:15:56;96002.38;;;14.93;50.70
16461;BME280;8341;42.048;24.650;2023-01-20T00:18:23;95980.44;;;14.80;51.14
16461;BME280;8341;42.048;24.650;2023-01-20T00:20:50;95967.78;;;14.77;51.31
16461;BME280;8341;42.048;24.650;2023-01-20T00:23:16;95968.53;;;14.77;51.14
16461;BME280;8341;42.048;24.650;2023-01-20T00:25:44;95985.31;;;14.74;51.65
16461;BME280;8341;42.048;24.650;2023-01-20T00:28:11;95970.66;;;14.71;53.25
16461;BME280;8341;42.048;24.650;2023-01-20T00:30:38;95946.59;;;14.64;54.86
16461;BME280;8341;42.048;24.650;2023-01-20T00:33:06;95962.34;;;14.51;54.58
16461;BME280;8341;42.048;24.650;2023-01-20T00:35:32;95989.31;;;14.47;54.58
16461;BME280;8341;42.048;24.650;2023-01-20T00:37:59;95989.13;;;14.58;52.59
16461;BME280;8341;42.048;24.650;2023-01-20T00:40:26;96017.72;;;14.62;51.63
16461;BME280;8341;42.048;24.650;2023-01-20T00:42:54;96043.03;;;14.68;52.35
16461;BME280;8341;42.048;24.650;2023-01-20T00:45:21;96030.06;;;14.69;52.07
16461;BME280;8341;42.048;24.650;2023-01-20T00:47:48;96046.31;;;14.67;53.37
16461;BME280;8341;42.048;24.650;2023-01-20T00:50:15;96055.59;;;14.51;56.78
16461;BME280;8341;42.048;24.650;2023-01-20T00:52:41;96042.91;;;14.34;58.27
16461;BME280;8341;42.048;24.650;2023-01-20T00:55:08;96076.31;;;14.20;60.35
16461;BME280;8341;42.048;24.650;2023-01-20T00:57:35;96050.84;;;14.06;63.15
16461;BME280;8341;42.048;24.650;2023-01-20T01:00:04;96055.88;;;13.89;61.87
16461;BME280;8341;42.048;24.650;2023-01-20T01:02:36;96055.13;;;13.89;59.80
16461;BME280;8341;42.048;24.650;2023-01-20T01:05:03;96068.97;;;13.96;59.85
16461;BME280;8341;42.048;24.650;2023-01-20T01:07:30;96087.94;;;13.94;59.28
16461;BME280;8341;42.048;24.650;2023-01-20T01:09:57;96128.63;;;14.03;58.77
16461;BME280;8341;42.048;24.650;2023-01-20T01:12:23;96121.91;;;14.04;60.99
16461;BME280;8341;42.048;24.650;2023-01-20T01:14:50;96146.53;;;13.91;64.07
16461;BME280;8341;42.048;24.650;2023-01-20T01:17:18;96137.84;;;13.87;65.25
16461;BME280;8341;42.048;24.650;2023-01-20T01:19:48;96153.72;;;13.75;65.42
16461;BME280;8341;42.048;24.650;2023-01-20T01:22:14;96169.19;;;13.73;64.86
16461;BME280;8341;42.048;24.650;2023-01-20T01:24:42;96187.34;;;13.76;63.14
16461;BME280;8341;42.048;24.650;2023-01-20T01:27:09;96180.38;;;13.75;62.73
16461;BME280;8341;42.048;24.650;2023-01-20T01:29:35;96185.03;;;13.80;61.49
16461;BME280;8341;42.048;24.650;2023-01-20T01:32:02;96199.00;;;13.76;62.75
16461;BME280;8341;42.048;24.650;2023-01-20T01:34:31;96224.19;;;13.75;62.39
16461;BME280;8341;42.048;24.650;2023-01-20T01:36:58;96230.72;;;13.72;62.21
16461;BME280;8341;42.048;24.650;2023-01-20T01:39:25;96234.19;;;13.72;64.58
16461;BME280;8341;42.048;24.650;2023-01-20T01:41:52;96186.66;;;13.70;67.39
16461;BME280;8341;42.048;24.650;2023-01-20T01:44:19;96189.84;;;13.55;71.18
16461;BME280;8341;42.048;24.650;2023-01-20T01:46:46;96196.69;;;13.43;71.73
16461;BME280;8341;42.048;24.650;2023-01-20T01:49:16;96201.91;;;13.23;71.50
16461;BME280;8341;42.048;24.650;2023-01-20T01:51:50;96198.81;;;13.32;70.05
16461;BME280;8341;42.048;24.650;2023-01-20T01:54:21;96216.00;;;13.32;71.65
16461;BME280;8341;42.048;24.650;2023-01-20T01:56:49;96184.97;;;13.24;73.44
16461;BME280;8341;42.048;24.650;2023-01-20T01:59:17;96179.56;;;13.18;72.28
16461;BME280;8341;42.048;24.650;2023-01-20T02:01:46;96180.00;;;13.23;74.14
16461;BME280;8341;42.048;24.650;2023-01-20T02:04:16;96193.03;;;13.16;73.29
16461;BME280;8341;42.048;24.650;2023-01-20T02:06:48;96202.03;;;13.11;72.03
16461;BME280;8341;42.048;24.650;2023-01-20T02:09:16;96219.19;;;13.12;73.37
16461;BME280;8341;42.048;24.650;2023-01-20T02:11:45;96218.72;;;13.08;72.92
16461;BME280;8341;42.048;24.650;2023-01-20T02:14:14;96212.75;;;13.09;70.07
16461;BME280;8341;42.048;24.650;2023-01-20T02:16:48;96209.53;;;13.05;70.65
16461;BME280;8341;42.048;24.650;2023-01-20T02:19:40;96207.78;;;13.08;70.25
16461;BME280;8341;42.048;24.650;2023-01-20T02:22:23;96214.28;;;12.75;70.61
16461;BME280;8341;42.048;24.650;2023-01-20T02:25:25;96241.03;;;12.88;70.27
16461;BME280;8341;42.048;24.650;2023-01-20T02:31:13;96226.69;;;12.17;74.29
16461;BME280;8341;42.048;24.650;2023-01-20T02:33:51;96221.94;;;11.65;78.71
16461;BME280;8341;42.048;24.650;2023-01-20T02:36:25;96237.94;;;11.39;83.09
16461;BME280;8341;42.048;24.650;2023-01-20T02:38:57;96247.66;;;11.12;84.84
16461;BME280;8341;42.048;24.650;2023-01-20T02:41:33;96260.75;;;11.36;85.13
16461;BME280;8341;42.048;24.650;2023-01-20T02:44:08;96257.03;;;11.33;83.56
16461;BME280;8341;42.048;24.650;2023-01-20T02:46:40;96247.56;;;11.46;83.97
16461;BME280;8341;42.048;24.650;2023-01-20T02:49:16;96243.19;;;11.15;87.37
16461;BME280;8341;42.048;24.650;2023-01-20T02:51:48;96247.88;;;11.20;87.62
16461;BME280;8341;42.048;24.650;2023-01-20T02:54:18;96238.19;;;11.36;87.88
16461;BME280;8341;42.048;24.650;2023-01-20T02:56:46;96230.22;;;11.38;88.01
16461;BME280;8341;42.048;24.650;2023-01-20T02:59:16;96241.13;;;11.49;87.65
16461;BME280;8341;42.048;24.650;2023-01-20T03:01:49;96233.16;;;11.56;87.60
16461;BME280;8341;42.048;24.650;2023-01-20T03:04:22;96220.75;;;11.55;87.17
16461;BME280;8341;42.048;24.650;2023-01-20T03:06:53;96206.06;;;11.58;88.42
16461;BME280;8341;42.048;24.650;2023-01-20T03:09:26;96197.19;;;11.47;89.11
16461;BME280;8341;42.048;24.650;2023-01-20T03:11:57;96200.19;;;11.43;90.82
16461;BME280;8341;42.048;24.650;2023-01-20T03:14:26;96183.78;;;11.54;90.74
16461;BME280;8341;42.048;24.650;2023-01-20T03:16:53;96174.91;;;11.43;91.60
16461;BME280;8341;42.048;24.650;2023-01-20T03:19:22;96180.84;;;11.41;91.18
16461;BME280;8341;42.048;24.650;2023-01-20T03:21:49;96179.09;;;11.44;91.21
16461;BME280;8341;42.048;24.650;2023-01-20T03:24:15;96171.69;;;11.33;88.99
16461;BME280;8341;42.048;24.650;2023-01-20T03:26:42;96180.66;;;11.28;90.17
16461;BME280;8341;42.048;24.650;2023-01-20T03:29:09;96166.59;;;11.02;90.83
16461;BME280;8341;42.048;24.650;2023-01-20T03:31:39;96211.72;;;11.03;88.46
16461;BME280;8341;42.048;24.650;2023-01-20T03:34:09;96197.84;;;11.01;89.79
16461;BME280;8341;42.048;24.650;2023-01-20T03:36:40;96194.06;;;11.15;89.76
16461;BME280;8341;42.048;24.650;2023-01-20T03:39:08;96180.25;;;10.96;92.00
16461;BME280;8341;42.048;24.650;2023-01-20T03:41:45;96182.94;;;11.07;92.24
16461;BME280;8341;42.048;24.650;2023-01-20T03:44:19;96199.31;;;11.07;93.03
16461;BME280;8341;42.048;24.650;2023-01-20T03:46:52;96184.72;;;10.94;94.57
16461;BME280;8341;42.048;24.650;2023-01-20T03:49:25;96184.69;;;11.05;94.56
16461;BME280;8341;42.048;24.650;2023-01-20T03:51:59;96173.28;;;11.06;95.47
16461;BME280;8341;42.048;24.650;2023-01-20T03:54:33;96163.63;;;11.05;95.46
16461;BME280;8341;42.048;24.650;2023-01-20T03:57:07;96151.47;;;11.01;95.43
16461;BME280;8341;42.048;24.650;2023-01-20T03:59:39;96149.81;;;10.64;94.79
16461;BME280;8341;42.048;24.650;2023-01-20T04:02:07;96152.25;;;10.85;95.21
16461;BME280;8341;42.048;24.650;2023-01-20T04:04:37;96152.28;;;10.74;95.39
16461;BME280;8341;42.048;24.650;2023-01-20T04:07:08;96174.31;;;10.87;95.75
16461;BME280;8341;42.048;24.650;2023-01-20T04:09:39;96155.97;;;10.82;96.31
16461;BME280;8341;42.048;24.650;2023-01-20T04:12:08;96160.94;;;10.83;95.68
16461;BME280;8341;42.048;24.650;2023-01-20T04:14:35;96160.75;;;10.42;99.71
16461;BME280;8341;42.048;24.650;2023-01-20T04:17:02;96150.59;;;10.32;100.00
16461;BME280;8341;42.048;24.650;2023-01-20T04:19:31;96149.13;;;10.47;99.31
16461;BME280;8341;42.048;24.650;2023-01-20T04:22:01;96149.34;;;10.60;98.50
16461;BME280;8341;42.048;24.650;2023-01-20T04:24:34;96133.25;;;10.51;96.11
16461;BME280;8341;42.048;24.650;2023-01-20T04:27:03;96118.16;;;10.28;98.28
16461;BME280;8341;42.048;24.650;2023-01-20T04:29:29;96126.84;;;10.21;99.71
16461;BME280;8341;42.048;24.650;2023-01-20T04:32:00;96128.81;;;10.32;100.00
16461;BME280;8341;42.048;24.650;2023-01-20T04:34:28;96116.66;;;10.38;99.71
16461;BME280;8341;42.048;24.650;2023-01-20T04:36:55;96134.00;;;10.30;100.00
16461;BME280;8341;42.048;24.650;2023-01-20T04:39:21;96138.72;;;10.35;100.00
16461;BME280;8341;42.048;24.650;2023-01-20T04:41:49;96141.91;;;10.22;100.00
16461;BME280;8341;42.048;24.650;2023-01-20T04:44:16;96163.72;;;10.22;100.00
16461;BME280;8341;42.048;24.650;2023-01-20T04:46:44;96162.50;;;10.29;100.00
16461;BME280;8341;42.048;24.650;2023-01-20T04:49:11;96154.03;;;10.04;100.00
16461;BME280;8341;42.048;24.650;2023-01-20T04:51:38;96157.03;;;10.18;100.00
16461;BME280;8341;42.048;24.650;2023-01-20T04:54:05;96152.59;;;10.31;100.00
16461;BME280;8341;42.048;24.650;2023-01-20T04:56:32;96165.94;;;10.46;100.00
16461;BME280;8341;42.048;24.650;2023-01-20T04:59:01;96151.34;;;10.54;99.82
16461;BME280;8341;42.048;24.650;2023-01-20T05:01:27;96145.88;;;10.54;99.00
16461;BME280;8341;42.048;24.650;2023-01-20T05:03:54;96149.59;;;10.62;97.33
16461;BME280;8341;42.048;24.650;2023-01-20T05:06:21;96152.78;;;10.66;97.12
16461;BME280;8341;42.048;24.650;2023-01-20T05:08:48;96130.72;;;10.70;97.22
16461;BME280;8341;42.048;24.650;2023-01-20T05:11:14;96135.44;;;10.58;97.89
16461;BME280;8341;42.048;24.650;2023-01-20T05:13:41;96154.06;;;10.65;97.19
16461;BME280;8341;42.048;24.650;2023-01-20T05:16:09;96132.94;;;10.72;96.57
16461;BME280;8341;42.048;24.650;2023-01-20T05:18:37;96120.34;;;10.63;96.64
16461;BME280;8341;42.048;24.650;2023-01-20T05:21:04;96126.53;;;10.63;95.99
16461;BME280;8341;42.048;24.650;2023-01-20T05:23:33;96108.94;;;10.64;96.24
16461;BME280;8341;42.048;24.650;2023-01-20T05:25:59;96102.97;;;10.66;96.26
16461;BME280;8341;42.048;24.650;2023-01-20T05:28:26;96081.44;;;10.62;95.87
16461;BME280;8341;42.048;24.650;2023-01-20T05:30:53;96080.47;;;10.43;96.78
16461;BME280;8341;42.048;24.650;2023-01-20T05:33:21;96072.31;;;10.38;97.69
16461;BME280;8341;42.048;24.650;2023-01-20T05:35:48;96070.84;;;10.42;97.24
16461;BME280;8341;42.048;24.650;2023-01-20T05:38:14;96078.00;;;10.45;97.07
16461;BME280;8341;42.048;24.650;2023-01-20T05:40:41;96064.88;;;10.33;98.64
16461;BME280;8341;42.048;24.650;2023-01-20T05:43:08;96067.59;;;10.38;98.11
16461;BME280;8341;42.048;24.650;2023-01-20T05:45:35;96059.44;;;10.33;98.26
16461;BME280;8341;42.048;24.650;2023-01-20T05:48:02;96065.63;;;10.33;98.84
16461;BME280;8341;42.048;24.650;2023-01-20T05:50:30;96063.19;;;10.19;100.00
16461;BME280;8341;42.048;24.650;2023-01-20T05:52:57;96064.19;;;10.21;100.00
16461;BME280;8341;42.048;24.650;2023-01-20T05:55:24;96050.56;;;10.27;99.44
16461;BME280;8341;42.048;24.650;2023-01-20T05:57:51;96055.00;;;10.24;100.00
16461;BME280;8341;42.048;24.650;2023-01-20T06:00:19;96040.66;;;10.24;100.00
16461;BME280;8341;42.048;24.650;2023-01-20T06:02:45;96037.94;;;10.18;100.00
16461;BME280;8341;42.048;24.650;2023-01-20T06:05:12;96042.38;;;10.21;100.00
16461;BME280;8341;42.048;24.650;2023-01-20T06:07:40;96036.94;;;10.16;100.00
16461;BME280;8341;42.048;24.650;2023-01-20T06:10:08;96026.78;;;10.22;100.00
16461;BME280;8341;42.048;24.650;2023-01-20T06:12:35;96019.06;;;10.31;98.75
16461;BME280;8341;42.048;24.650;2023-01-20T06:15:04;96017.09;;;10.37;98.31
16461;BME280;8341;42.048;24.650;2023-01-20T06:17:31;96012.66;;;10.18;97.63
16461;BME280;8341;42.048;24.650;2023-01-20T06:19:57;96005.25;;;10.18;97.04
16461;BME280;8341;42.048;24.650;2023-01-20T06:22:25;96001.28;;;10.08;98.66
16461;BME280;8341;42.048;24.650;2023-01-20T06:24:53;96002.50;;;10.07;97.55
16461;BME280;8341;42.048;24.650;2023-01-20T06:27:20;96013.66;;;10.20;97.57
16461;BME280;8341;42.048;24.650;2023-01-20T06:29:47;96006.47;;;10.23;97.04
16461;BME280;8341;42.048;24.650;2023-01-20T06:32:15;95997.81;;;10.24;96.56
16461;BME280;8341;42.048;24.650;2023-01-20T06:34:42;96007.44;;;10.20;97.93
16461;BME280;8341;42.048;24.650;2023-01-20T06:37:08;96016.34;;;10.37;96.28
16461;BME280;8341;42.048;24.650;2023-01-20T06:39:35;96016.56;;;10.44;97.29
16461;BME280;8341;42.048;24.650;2023-01-20T06:42:04;96018.53;;;10.49;95.60
16461;BME280;8341;42.048;24.650;2023-01-20T06:44:31;96011.69;;;10.15;98.19
16461;BME280;8341;42.048;24.650;2023-01-20T06:46:59;96026.47;;;10.47;96.90
16461;BME280;8341;42.048;24.650;2023-01-20T06:49:26;96017.47;;;10.63;96.10
16461;BME280;8341;42.048;24.650;2023-01-20T06:51:53;96000.16;;;10.55;95.92
16461;BME280;8341;42.048;24.650;2023-01-20T06:54:20;96004.56;;;10.75;95.17
16461;BME280;8341;42.048;24.650;2023-01-20T06:56:46;96030.28;;;10.91;95.13
16461;BME280;8341;42.048;24.650;2023-01-20T06:59:15;96027.25;;;11.00;94.67
16461;BME280;8341;42.048;24.650;2023-01-20T07:01:41;96037.63;;;11.07;92.98
16461;BME280;8341;42.048;24.650;2023-01-20T07:04:09;96034.13;;;11.12;92.05
16461;BME280;8341;42.048;24.650;2023-01-20T07:06:39;96037.75;;;11.25;91.44
16461;BME280;8341;42.048;24.650;2023-01-20T07:09:08;96013.91;;;11.31;91.21
16461;BME280;8341;42.048;24.650;2023-01-20T07:11:35;96003.31;;;11.58;89.35
16461;BME280;8341;42.048;24.650;2023-01-20T07:14:03;96011.19;;;11.67;88.17
16461;BME280;8341;42.048;24.650;2023-01-20T07:16:31;96031.63;;;11.90;86.16
16461;BME280;8341;42.048;24.650;2023-01-20T07:18:58;96048.75;;;11.90;83.55
16461;BME280;8341;42.048;24.650;2023-01-20T07:21:25;96037.47;;;11.75;83.07
16461;BME280;8341;42.048;24.650;2023-01-20T07:23:52;96062.34;;;12.02;83.36
16461;BME280;8341;42.048;24.650;2023-01-20T07:26:21;96063.06;;;12.02;82.89
16461;BME280;8341;42.048;24.650;2023-01-20T07:28:48;96057.31;;;12.06;82.01
16461;BME280;8341;42.048;24.650;2023-01-20T07:31:17;96066.31;;;12.01;82.26
16461;BME280;8341;42.048;24.650;2023-01-20T07:33:46;96073.19;;;12.07;82.30
16461;BME280;8341;42.048;24.650;2023-01-20T07:36:14;96080.34;;;12.16;82.16
16461;BME280;8341;42.048;24.650;2023-01-20T07:38:42;96095.56;;;12.06;85.07
16461;BME280;8341;42.048;24.650;2023-01-20T07:41:10;96096.31;;;12.06;85.80
16461;BME280;8341;42.048;24.650;2023-01-20T07:43:40;96091.31;;;12.10;86.07
16461;BME280;8341;42.048;24.650;2023-01-20T07:46:07;96105.47;;;12.14;84.93
16461;BME280;8341;42.048;24.650;2023-01-20T07:48:34;96122.81;;;12.17;85.70
16461;BME280;8341;42.048;24.650;2023-01-20T07:51:04;96144.00;;;12.05;86.61
16461;BME280;8341;42.048;24.650;2023-01-20T07:53:33;96144.94;;;11.78;91.69
16461;BME280;8341;42.048;24.650;2023-01-20T07:56:01;96200.06;;;11.76;90.86
16461;BME280;8341;42.048;24.650;2023-01-20T07:58:28;96244.38;;;11.36;96.19
16461;BME280;8341;42.048;24.650;2023-01-20T08:00:55;96259.31;;;11.13;98.15
16461;BME280;8341;42.048;24.650;2023-01-20T08:03:22;96262.28;;;11.15;92.86
16461;BME280;8341;42.048;24.650;2023-01-20T08:05:50;96244.72;;;10.99;98.90
16461;BME280;8341;42.048;24.650;2023-01-20T08:08:18;96245.16;;;11.20;100.00
16461;BME280;8341;42.048;24.650;2023-01-20T08:10:45;96246.91;;;11.12;100.00
16461;BME280;8341;42.048;24.650;2023-01-20T08:13:12;96238.03;;;10.95;100.00
16461;BME280;8341;42.048;24.650;2023-01-20T08:15:39;96224.16;;;10.93;100.00
16461;BME280;8341;42.048;24.650;2023-01-20T08:18:05;96220.69;;;10.87;100.00
16461;BME280;8341;42.048;24.650;2023-01-20T08:20:32;96200.59;;;10.90;100.00
16461;BME280;8341;42.048;24.650;2023-01-20T08:22:59;96192.19;;;10.82;100.00
16461;BME280;8341;42.048;24.650;2023-01-20T08:25:27;96181.28;;;10.77;100.00
16461;BME280;8341;42.048;24.650;2023-01-20T08:27:54;96175.06;;;10.82;100.00
16461;BME280;8341;42.048;24.650;2023-01-20T08:30:21;96166.41;;;10.83;100.00
16461;BME280;8341;42.048;24.650;2023-01-20T08:32:48;96168.84;;;10.87;99.25
16461;BME280;8341;42.048;24.650;2023-01-20T08:35:15;96184.00;;;10.88;98.63
16461;BME280;8341;42.048;24.650;2023-01-20T08:37:42;96195.38;;;10.92;97.14
16461;BME280;8341;42.048;24.650;2023-01-20T08:40:10;96187.47;;;10.94;97.15
16461;BME280;8341;42.048;24.650;2023-01-20T08:42:38;96188.94;;;10.95;96.29
16461;BME280;8341;42.048;24.650;2023-01-20T08:45:06;96175.53;;;10.97;96.80
16461;BME280;8341;42.048;24.650;2023-01-20T08:47:34;96161.41;;;11.04;96.20
16461;BME280;8341;42.048;24.650;2023-01-20T08:50:03;96146.00;;;11.06;96.52
16461;BME280;8341;42.048;24.650;2023-01-20T08:52:29;96139.84;;;10.95;97.69
16461;BME280;8341;42.048;24.650;2023-01-20T08:54:56;96113.34;;;10.84;97.02
16461;BME280;8341;42.048;24.650;2023-01-20T08:57:24;96092.09;;;10.60;97.05
16461;BME280;8341;42.048;24.650;2023-01-20T08:59:53;96074.28;;;10.48;100.00
16461;BME280;8341;42.048;24.650;2023-01-20T09:02:21;96073.28;;;10.40;100.00
16461;BME280;8341;42.048;24.650;2023-01-20T09:04:49;96071.81;;;10.39;100.00
16461;BME280;8341;42.048;24.650;2023-01-20T09:07:19;96090.38;;;10.41;95.82
16461;BME280;8341;42.048;24.650;2023-01-20T09:09:46;96080.75;;;10.23;100.00
16461;BME280;8341;42.048;24.650;2023-01-20T09:12:13;96080.00;;;10.28;100.00
16461;BME280;8341;42.048;24.650;2023-01-20T09:14:40;96028.00;;;10.04;100.00
16461;BME280;8341;42.048;24.650;2023-01-20T09:17:08;96024.03;;;10.11;100.00
16461;BME280;8341;42.048;24.650;2023-01-20T09:19:35;96020.09;;;10.06;100.00
16461;BME280;8341;42.048;24.650;2023-01-20T09:22:02;96019.56;;;10.30;100.00
16461;BME280;8341;42.048;24.650;2023-01-20T09:24:29;95999.25;;;10.36;97.43
16461;BME280;8341;42.048;24.650;2023-01-20T09:26:55;95965.34;;;10.32;100.00
16461;BME280;8341;42.048;24.650;2023-01-20T09:29:23;95970.47;;;10.46;95.61
16461;BME280;8341;42.048;24.650;2023-01-20T09:31:51;95961.41;;;10.74;100.00
16461;BME280;8341;42.048;24.650;2023-01-20T09:34:25;95938.28;;;10.91;100.00
16461;BME280;8341;42.048;24.650;2023-01-20T09:36:55;95919.41;;;10.99;100.00
16461;BME280;8341;42.048;24.650;2023-01-20T09:39:23;95908.59;;;11.17;100.00
16461;BME280;8341;42.048;24.650;2023-01-20T09:42:28;95888.63;;;11.33;100.00
16461;BME280;8341;42.048;24.650;2023-01-20T09:45:19;95875.09;;;11.47;100.00
16461;BME280;8341;42.048;24.650;2023-01-20T09:47:50;95884.66;;;11.59;100.00
16461;BME280;8341;42.048;24.650;2023-01-20T09:50:27;95902.72;;;11.67;100.00
16461;BME280;8341;42.048;24.650;2023-01-20T09:53:33;95900.47;;;11.96;100.00
16461;BME280;8341;42.048;24.650;2023-01-20T09:56:08;95902.78;;;12.10;100.00
16461;BME280;8341;42.048;24.650;2023-01-20T09:58:41;95917.47;;;12.07;94.73
16461;BME280;8341;42.048;24.650;2023-01-20T10:01:16;95928.06;;;12.16;96.32
16461;BME280;8341;42.048;24.650;2023-01-20T10:03:48;95916.31;;;12.21;97.47
16461;BME280;8341;42.048;24.650;2023-01-20T10:06:25;95918.84;;;12.19;98.05
16461;BME280;8341;42.048;24.650;2023-01-20T10:08:56;95916.31;;;12.21;100.00
16461;BME280;8341;42.048;24.650;2023-01-20T10:11:25;95907.44;;;12.15;100.00
16461;BME280;8341;42.048;24.650;2023-01-20T10:14:02;95917.56;;;12.20;100.00
16461;BME280;8341;42.048;24.650;2023-01-20T10:16:36;95912.34;;;12.41;100.00
16461;BME280;8341;42.048;24.650;2023-01-20T10:19:09;95910.72;;;12.51;99.01
16461;BME280;8341;42.048;24.650;2023-01-20T10:21:44;95914.88;;;12.76;97.68
16461;BME280;8341;42.048;24.650;2023-01-20T10:24:17;95914.56;;;12.98;93.92
16461;BME280;8341;42.048;24.650;2023-01-20T10:26:51;95909.03;;;13.36;93.99
16461;BME280;8341;42.048;24.650;2023-01-20T10:29:26;95915.63;;;13.59;88.64
16461;BME280;8341;42.048;24.650;2023-01-20T10:31:58;95910.63;;;13.89;85.24
16461;BME280;8341;42.048;24.650;2023-01-20T10:34:33;95908.31;;;14.19;82.91
16461;BME280;8341;42.048;24.650;2023-01-20T10:37:09;95922.22;;;14.08;77.01
16461;BME280;8341;42.048;24.650;2023-01-20T10:39:41;95917.38;;;14.01;75.09
16461;BME280;8341;42.048;24.650;2023-01-20T10:42:11;95905.88;;;14.03;75.58
16461;BME280;8341;42.048;24.650;2023-01-20T10:44:39;95901.78;;;13.96;73.66
16461;BME280;8341;42.048;24.650;2023-01-20T10:47:24;95886.59;;;13.82;76.51
16461;BME280;8341;42.048;24.650;2023-01-20T10:50:30;95909.13;;;13.75;77.40
16461;BME280;8341;42.048;24.650;2023-01-20T10:53:14;95910.81;;;13.78;78.34
16461;BME280;8341;42.048;24.650;2023-01-20T10:55:55;95907.44;;;13.72;80.85
16461;BME280;8341;42.048;24.650;2023-01-20T10:58:26;95873.91;;;13.53;81.25
16461;BME280;8341;42.048;24.650;2023-01-20T11:00:54;95853.81;;;13.50;80.06
16461;BME280;8341;42.048;24.650;2023-01-20T11:03:22;95880.81;;;13.41;83.26
16461;BME280;8341;42.048;24.650;2023-01-20T11:05:51;95884.53;;;13.43;82.49
16461;BME280;8341;42.048;24.650;2023-01-20T11:08:21;95884.97;;;13.47;82.10
16461;BME280;8341;42.048;24.650;2023-01-20T11:10:51;95877.69;;;13.50;80.45
16461;BME280;8341;42.048;24.650;2023-01-20T11:13:19;95876.16;;;13.67;79.47
16461;BME280;8341;42.048;24.650;2023-01-20T11:15:47;95887.88;;;13.81;76.33
16461;BME280;8341;42.048;24.650;2023-01-20T11:18:20;95888.38;;;13.79;76.51
16461;BME280;8341;42.048;24.650;2023-01-20T11:20:49;95895.84;;;13.79;76.30
16461;BME280;8341;42.048;24.650;2023-01-20T11:23:25;95889.03;;;13.86;76.89
16461;BME280;8341;42.048;24.650;2023-01-20T11:25:57;95888.06;;;13.83;77.93
16461;BME280;8341;42.048;24.650;2023-01-20T11:28:26;95870.16;;;13.82;77.25
16461;BME280;8341;42.048;24.650;2023-01-20T11:30:58;95892.06;;;13.95;76.95
16461;BME280;8341;42.048;24.650;2023-01-20T11:33:27;95872.69;;;13.80;78.29
16461;BME280;8341;42.048;24.650;2023-01-20T11:35:59;95877.53;;;13.87;76.15
16461;BME280;8341;42.048;24.650;2023-01-20T11:38:29;95863.59;;;13.72;75.99
16461;BME280;8341;42.048;24.650;2023-01-20T11:40:56;95843.38;;;13.62;75.37
16461;BME280;8341;42.048;24.650;2023-01-20T11:43:31;95856.25;;;13.80;76.27
16461;BME280;8341;42.048;24.650;2023-01-20T11:46:20;95841.88;;;13.35;76.93
16461;BME280;8341;42.048;24.650;2023-01-20T11:48:47;95844.69;;;13.29;75.41
16461;BME280;8341;42.048;24.650;2023-01-20T11:51:19;95843.69;;;13.45;78.57
16461;BME280;8341;42.048;24.650;2023-01-20T11:53:47;95829.38;;;13.52;78.63
16461;BME280;8341;42.048;24.650;2023-01-20T11:56:17;95809.13;;;13.42;79.24
16461;BME280;8341;42.048;24.650;2023-01-20T11:58:50;95838.31;;;13.40;80.00
16461;BME280;8341;42.048;24.650;2023-01-20T12:01:22;95827.13;;;13.51;79.89
16461;BME280;8341;42.048;24.650;2023-01-20T12:04:11;95833.16;;;13.62;79.48
16461;BME280;8341;42.048;24.650;2023-01-20T12:06:49;95840.75;;;13.69;79.84
16461;BME280;8341;42.048;24.650;2023-01-20T12:09:20;95833.97;;;13.44;75.51
16461;BME280;8341;42.048;24.650;2023-01-20T12:11:52;95844.69;;;13.29;74.95
16461;BME280;8341;42.048;24.650;2023-01-20T12:14:25;95844.09;;;13.04;79.15
16461;BME280;8341;42.048;24.650;2023-01-20T12:20:04;95843.63;;;13.00;79.01
16461;BME280;8341;42.048;24.650;2023-01-20T12:22:39;95834.97;;;13.15;79.91
16461;BME280;8341;42.048;24.650;2023-01-20T12:25:18;95828.91;;;13.03;77.84
16461;BME280;8341;42.048;24.650;2023-01-20T12:27:52;95828.03;;;13.14;77.51
16461;BME280;8341;42.048;24.650;2023-01-20T12:30:40;95818.56;;;13.28;79.34
16461;BME280;8341;42.048;24.650;2023-01-20T12:33:20;95819.16;;;13.53;80.03
16461;BME280;8341;42.048;24.650;2023-01-20T12:36:13;95840.84;;;13.64;79.89
16461;BME280;8341;42.048;24.650;2023-01-20T12:38:56;95824.28;;;13.56;80.06
16461;BME280;8341;42.048;24.650;2023-01-20T12:41:42;95834.84;;;13.52;79.68
16461;BME280;8341;42.048;24.650;2023-01-20T12:44:18;95838.63;;;13.62;78.28
16461;BME280;8341;42.048;24.650;2023-01-20T12:46:51;95845.72;;;13.71;76.32
16461;BME280;8341;42.048;24.650;2023-01-20T12:49:35;95851.59;;;13.75;76.61
16461;BME280;8341;42.048;24.650;2023-01-20T12:52:18;95863.81;;;13.74;76.48
16461;BME280;8341;42.048;24.650;2023-01-20T12:55:01;95876.69;;;13.66;76.98
16461;BME280;8341;42.048;24.650;2023-01-20T12:57:47;95883.28;;;13.57;77.17
16461;BME280;8341;42.048;24.650;2023-01-20T13:00:34;95887.81;;;13.55;76.79
16461;BME280;8341;42.048;24.650;2023-01-20T13:03:20;95889.28;;;13.43;78.69
16461;BME280;8341;42.048;24.650;2023-01-20T13:06:07;95870.63;;;13.41;78.98
16461;BME280;8341;42.048;24.650;2023-01-20T13:08:44;95873.97;;;13.34;80.83
16461;BME280;8341;42.048;24.650;2023-01-20T13:11:18;95880.50;;;13.31;81.67
16461;BME280;8341;42.048;24.650;2023-01-20T13:14:02;95861.22;;;13.24;82.16
16461;BME280;8341;42.048;24.650;2023-01-20T13:16:36;95854.25;;;13.23;83.22
16461;BME280;8341;42.048;24.650;2023-01-20T13:19:10;95821.16;;;13.07;83.87
16461;BME280;8341;42.048;24.650;2023-01-20T13:21:39;95824.75;;;13.15;83.78